Jackson, NH (03846)

5:47 AM EDT on August 28, 2015 (GMT -0400)
Carter Notch | | Change Station
CLOSE
Current Station
Personal Weather Station
Location: Jackson, NH
Elevation: 1709 ft
Nearby Weather Stations

Elev 1709 ft 44.21 °N, 71.20 °W | Updated 9 minutes ago

Clear
Clear
53.7 °F
Feels Like 53.7 °F
N
0.0
Wind Variable Wind from SE
Gusts 2.0 mph

Today
High -- | Low -- °F
--% Chance of Precip.
Yesterday
High -- | Low -- °F
Precip. -- in
6:02 AM 7:28 PM
Waxing Gibbous, 97% visible
Pressure 30.10 in
Visibility 0.5 miles
Clouds
Dew Point 51 °F
Humidity 89%
Rainfall 0.00 in
Snow Depth Not available.
UV Not available.
Pollen 8.60 out of 12
Air Quality Not available.
Flu Activity Not available.
SPECI KIZG 280910Z AUTO 00000KT 1/2SM FG VV001 09/09 A3010 RMK AO2 T00890089 $
Pressure 30.10 in
Visibility 0.5 miles
Clouds
Dew Point 51 °F
Humidity 89%
Rainfall 0.00 in
Snow Depth Not available.
UV Not available.
Pollen 8.60 out of 12
Air Quality Not available.
Flu Activity Not available.
SPECI KIZG 280910Z AUTO 00000KT 1/2SM FG VV001 09/09 A3010 RMK AO2 T00890089 $

10-Day Weather Forecast

×

Almanac

Astronomy

Aug. 28, 2015 Rise Set
Actual Time
Civil Twilight
Nautical Twilight
Astronomical Twilight
Moon
Length of Visible Light
Length of Day
Tomorrow will be .
, % of the Moon is Illuminated

Today's Extremes

State Highs State Lows

Community

WunderPhotos

Upload Photos

1,850,352 photos uploaded!

WunderBlogs® & News

Nearby

Air Quality

  Air Quality AQ Index Pollutant
Not available.

Snow Depth

Station Depth Elevation

Earthquake Activity

City Distance Mag. Time & Date
Minimum magnitude displayed is 2.5.

Coastal Water Temperatures

Place Temperature

Stations

Nearby Weather Stations

Station Location Temp. Windchill Dew Point Humidity Wind Precip. Elev Updated Type